Time;durP1;ratioP1;P1;durP2;ratioP2;P2;SDS_P1;SDS_P2;PMS_P1;PMS_P2;Temp;Humidity;BMP_temperature;BMP_pressure;BME280_temperature;BME280_humidity;BME280_pressure;Samples;Min_cycle;Max_cycle;Signal;HPM_P1;HPM_P2
2022/06/29 00:00:58;;;;;;;2.03;1.30;;;;;;;14.99;67.57;101142.88;6021229;28;20034;-66
2022/06/29 00:03:53;;;;;;;3.50;2.03;;;;;;;15.05;67.47;101139.56;6022412;28;20510;-66
2022/06/29 00:06:48;;;;;;;3.17;1.70;;;;;;;15.00;67.59;101128.50;6019860;28;20046;-66
2022/06/29 00:09:44;;;;;;;5.47;2.00;;;;;;;14.80;68.76;101140.50;6021902;28;20038;-67
2022/06/29 00:12:40;;;;;;;2.03;1.60;;;;;;;14.59;69.65;101140.09;6018992;28;20062;-66
2022/06/29 00:15:36;;;;;;;4.10;2.00;;;;;;;14.54;70.64;101155.78;6024651;28;20096;-66
2022/06/29 00:18:31;;;;;;;5.80;1.92;;;;;;;14.30;70.74;101149.28;6021648;28;20034;-66
2022/06/29 00:21:27;;;;;;;3.03;1.83;;;;;;;14.15;71.75;101147.38;6025075;28;20030;-66
2022/06/29 00:24:22;;;;;;;2.87;1.90;;;;;;;14.08;72.85;101146.31;6021574;28;20050;-66
2022/06/29 00:27:17;;;;;;;3.80;2.23;;;;;;;13.97;73.26;101142.09;6025664;28;20109;-66
2022/06/29 00:30:13;;;;;;;2.83;1.80;;;;;;;14.44;72.85;101144.38;6020775;28;20461;-66
2022/06/29 00:33:08;;;;;;;4.63;1.88;;;;;;;14.99;71.96;101136.69;6021030;28;20398;-66
2022/06/29 00:36:04;;;;;;;2.83;2.10;;;;;;;15.35;68.48;101148.78;6023526;28;20077;-66
2022/06/29 00:38:59;;;;;;;4.70;1.80;;;;;;;15.23;68.89;101142.06;6019334;28;20736;-66
2022/06/29 00:41:55;;;;;;;2.60;1.60;;;;;;;15.70;69.97;101148.47;6024893;28;20038;-66
2022/06/29 00:44:50;;;;;;;4.78;1.77;;;;;;;15.62;67.04;101142.28;6021442;28;20030;-66
2022/06/29 00:47:45;;;;;;;6.03;2.10;;;;;;;15.87;65.37;101139.41;6022856;28;20030;-66
2022/06/29 00:50:42;;;;;;;3.27;2.00;;;;;;;15.93;63.19;101136.06;6024199;28;20370;-66
2022/06/29 00:53:40;;;;;;;2.55;1.92;;;;;;;16.02;64.30;101131.53;6022994;28;20493;-66
2022/06/29 00:56:36;;;;;;;5.30;2.15;;;;;;;16.00;62.57;101130.88;6025658;28;20042;-66
2022/06/29 00:59:35;;;;;;;3.60;2.03;;;;;;;15.93;62.05;101138.72;6023592;28;20038;-66
2022/06/29 01:02:33;;;;;;;8.05;2.28;;;;;;;15.96;62.17;101134.88;6022982;28;20026;-66
2022/06/29 01:05:30;;;;;;;4.25;2.30;;;;;;;16.07;62.42;101121.16;6025299;28;20085;-66
2022/06/29 01:08:26;;;;;;;9.13;2.58;;;;;;;15.92;62.19;101126.38;6021670;28;20466;-65
2022/06/29 01:11:21;;;;;;;5.35;2.20;;;;;;;15.98;63.38;101123.00;6022406;28;20045;-65
2022/06/29 01:14:16;;;;;;;5.10;2.20;;;;;;;15.79;63.06;101130.59;6020830;28;20390;-65
2022/06/29 01:17:12;;;;;;;6.83;2.33;;;;;;;15.79;64.13;101126.03;6017813;28;20088;-65
2022/06/29 01:20:08;;;;;;;5.05;2.55;;;;;;;15.98;64.95;101124.88;6024191;28;20038;-65
2022/06/29 01:23:03;;;;;;;5.35;2.38;;;;;;;15.91;64.41;101110.50;6020055;28;20101;-65
2022/06/29 01:26:08;;;;;;;3.50;2.20;;;;;;;15.90;63.29;101116.84;6024329;28;20042;-66
2022/06/29 01:29:03;;;;;;;4.28;2.50;;;;;;;15.93;63.06;101109.31;6021724;28;20277;-66
2022/06/29 01:31:59;;;;;;;3.17;2.20;;;;;;;16.05;63.36;101109.78;6021992;28;20049;-66
2022/06/29 01:34:54;;;;;;;6.57;2.30;;;;;;;16.04;64.02;101102.75;6019561;28;20380;-66
2022/06/29 01:37:50;;;;;;;3.03;2.33;;;;;;;15.79;63.76;101103.84;6024919;28;20044;-66
2022/06/29 01:40:45;;;;;;;4.80;2.30;;;;;;;15.76;63.98;101105.00;6015552;28;20037;-66
2022/06/29 01:43:40;;;;;;;4.50;2.55;;;;;;;16.01;63.86;101103.09;6028108;28;20107;-66
2022/06/29 01:46:36;;;;;;;3.73;2.17;;;;;;;15.90;62.94;101100.78;6024665;28;20426;-66
2022/06/29 01:49:31;;;;;;;3.23;2.30;;;;;;;15.83;63.55;101094.47;6022672;28;20578;-66
2022/06/29 01:52:27;;;;;;;3.83;2.30;;;;;;;15.71;64.78;101099.31;6024994;28;20075;-66
2022/06/29 01:55:22;;;;;;;4.97;2.20;;;;;;;15.84;64.78;101096.13;6029106;28;20129;-66
2022/06/29 01:58:17;;;;;;;4.77;2.00;;;;;;;15.88;66.92;101082.25;6025440;28;20478;-66
2022/06/29 02:01:12;;;;;;;4.73;2.77;;;;;;;15.43;65.26;101082.81;6027637;28;20049;-66
2022/06/29 02:04:08;;;;;;;3.23;2.30;;;;;;;15.52;65.51;101097.00;6024785;28;20081;-66
2022/06/29 02:07:03;;;;;;;6.10;2.23;;;;;;;15.72;65.05;101092.97;6026612;28;20054;-66
2022/06/29 02:09:58;;;;;;;5.80;2.55;;;;;;;15.72;64.37;101097.50;6027142;28;20087;-66
2022/06/29 02:12:54;;;;;;;3.53;2.13;;;;;;;15.51;65.41;101087.34;6025806;28;20045;-66
2022/06/29 02:15:49;;;;;;;6.60;2.73;;;;;;;15.24;65.57;101093.84;6025509;28;20072;-66
2022/06/29 02:18:44;;;;;;;4.27;2.67;;;;;;;15.23;66.69;101086.81;6023459;28;20363;-66
2022/06/29 02:21:40;;;;;;;4.30;2.50;;;;;;;15.32;66.19;101069.78;6026678;28;20030;-66
2022/06/29 02:24:35;;;;;;;6.17;2.73;;;;;;;15.55;65.72;101074.44;6026491;28;20066;-66
2022/06/29 02:27:30;;;;;;;4.00;2.90;;;;;;;15.29;67.48;101066.59;6017504;28;20539;-66
2022/06/29 02:36:53;;;;;;;4.10;2.28;;;;;;;15.10;68.46;101065.09;6027281;28;20121;-66
2022/06/29 02:39:49;;;;;;;4.20;2.53;;;;;;;14.90;67.90;101069.91;6018741;28;20034;-66
2022/06/29 02:42:44;;;;;;;3.50;2.85;;;;;;;14.98;68.21;101071.75;6026546;28;20042;-66
2022/06/29 02:45:39;;;;;;;4.80;2.30;;;;;;;15.22;68.18;101077.09;6026892;28;20033;-66
2022/06/29 02:48:35;;;;;;;5.18;2.53;;;;;;;14.96;67.96;101079.09;6022656;28;20277;-66
2022/06/29 02:51:30;;;;;;;4.27;2.47;;;;;;;14.77;69.63;101068.72;6025898;28;20038;-66
2022/06/29 02:54:26;;;;;;;3.92;2.47;;;;;;;15.07;67.93;101076.13;6027398;28;20049;-66
2022/06/29 02:57:21;;;;;;;4.80;2.47;;;;;;;15.03;68.80;101057.94;6025092;28;20034;-66
2022/06/29 03:00:16;;;;;;;3.93;2.60;;;;;;;14.86;68.50;101076.59;6026581;28;20038;-66
2022/06/29 03:03:12;;;;;;;3.75;2.42;;;;;;;14.70;69.09;101076.53;6024689;28;20386;-66
2022/06/29 03:06:07;;;;;;;4.37;2.20;;;;;;;14.90;69.02;101075.25;6025535;28;20461;-66
2022/06/29 03:09:03;;;;;;;4.27;2.20;;;;;;;14.73;70.67;101062.06;6022439;28;20064;-66
2022/06/29 03:11:58;;;;;;;3.65;2.38;;;;;;;14.60;69.57;101062.53;6024818;28;20034;-66
2022/06/29 03:14:53;;;;;;;4.63;2.92;;;;;;;14.74;69.16;101074.41;6026153;28;20036;-66
2022/06/29 03:17:49;;;;;;;4.30;2.70;;;;;;;14.69;69.51;101071.38;6019172;28;20084;-66
2022/06/29 03:20:44;;;;;;;4.40;2.70;;;;;;;14.51;70.09;101074.16;6026100;28;20030;-66
2022/06/29 03:23:39;;;;;;;3.20;2.30;;;;;;;14.34;70.96;101060.94;6024398;28;20282;-66
2022/06/29 03:26:35;;;;;;;4.97;2.40;;;;;;;14.28;71.21;101062.41;6022297;28;20281;-66
2022/06/29 03:29:30;;;;;;;6.57;2.43;;;;;;;14.21;71.08;101062.19;6025182;28;20038;-66
2022/06/29 03:32:25;;;;;;;3.85;2.60;;;;;;;14.38;71.16;101051.63;6024609;28;20085;-66
2022/06/29 03:35:21;;;;;;;3.77;2.60;;;;;;;14.22;71.17;101053.22;6026718;28;20038;-66
2022/06/29 03:38:16;;;;;;;6.82;2.55;;;;;;;14.24;71.69;101051.19;6026155;28;20073;-65
2022/06/29 03:41:11;;;;;;;4.80;2.50;;;;;;;14.30;71.32;101058.56;6022383;28;20042;-66
2022/06/29 03:44:07;;;;;;;5.63;2.90;;;;;;;14.30;71.81;101057.72;6023037;28;20038;-66
2022/06/29 03:47:02;;;;;;;5.07;2.30;;;;;;;14.36;71.89;101048.28;6024860;28;20041;-66
2022/06/29 03:49:58;;;;;;;5.57;4.15;;;;;;;14.30;71.11;101052.38;6025989;28;20029;-66
2022/06/29 03:52:53;;;;;;;3.33;2.40;;;;;;;14.40;71.66;101050.47;6012764;28;20042;-66
2022/06/29 03:55:48;;;;;;;5.57;2.30;;;;;;;14.38;71.40;101043.63;6025747;28;20071;-66
2022/06/29 03:58:44;;;;;;;4.43;2.50;;;;;;;14.41;71.29;101046.78;6024217;28;20689;-66
2022/06/29 04:01:39;;;;;;;4.05;2.67;;;;;;;14.35;71.32;101046.63;6024351;28;20510;-66
2022/06/29 04:04:34;;;;;;;3.37;2.10;;;;;;;14.45;71.51;101052.66;6022513;28;20042;-66
2022/06/29 04:07:31;;;;;;;5.17;2.30;;;;;;;14.50;71.06;101056.50;6020615;28;20459;-65
2022/06/29 04:10:26;;;;;;;3.42;2.20;;;;;;;14.64;70.62;101073.72;6021835;28;20274;-66
2022/06/29 04:13:22;;;;;;;3.77;2.47;;;;;;;14.60;71.01;101073.19;6020658;28;20042;-66
2022/06/29 04:16:17;;;;;;;3.63;2.40;;;;;;;14.61;71.63;101077.53;6018502;28;20106;-66
2022/06/29 04:19:13;;;;;;;5.17;2.60;;;;;;;14.75;71.43;101076.09;6023541;28;20038;-66
2022/06/29 04:22:08;;;;;;;7.27;2.30;;;;;;;15.03;71.05;101074.75;6023563;28;20049;-66
2022/06/29 04:25:05;;;;;;;4.50;2.33;;;;;;;15.12;69.88;101073.78;6023582;28;20351;-66
2022/06/29 04:28:00;;;;;;;5.65;2.30;;;;;;;15.71;68.50;101066.44;6019316;28;20050;-65
2022/06/29 04:30:56;;;;;;;3.97;2.28;;;;;;;16.15;66.74;101083.66;6024720;28;20045;-66
2022/06/29 04:33:51;;;;;;;5.60;2.10;;;;;;;16.77;63.90;101067.66;6024731;28;20050;-66
2022/06/29 04:36:46;;;;;;;8.03;2.20;;;;;;;16.53;64.85;101077.50;6023740;28;20084;-65
2022/06/29 04:39:42;;;;;;;5.37;2.10;;;;;;;17.12;62.97;101067.88;6025562;28;20022;-66
2022/06/29 04:42:37;;;;;;;6.33;1.93;;;;;;;16.65;64.63;101075.25;6018994;28;20351;-66
2022/06/29 04:48:49;;;;;;;3.33;1.92;;;;;;;17.60;61.81;101069.34;6020226;28;20038;-66
2022/06/29 04:51:44;;;;;;;3.72;2.15;;;;;;;17.84;60.51;101061.03;6026604;28;20030;-66
2022/06/29 04:54:40;;;;;;;4.72;2.20;;;;;;;17.89;59.60;101065.84;6025132;28;20062;-66
2022/06/29 04:57:35;;;;;;;3.15;2.45;;;;;;;18.12;59.22;101050.50;6025128;28;20042;-66
2022/06/29 05:00:31;;;;;;;3.93;2.27;;;;;;;18.07;59.72;101065.50;6011013;28;20086;-66
2022/06/29 05:03:26;;;;;;;6.07;2.33;;;;;;;18.32;58.96;101064.97;6016892;28;20073;-66
2022/06/29 05:06:22;;;;;;;3.57;1.83;;;;;;;18.67;57.79;101066.03;6017070;28;20035;-66
2022/06/29 05:09:17;;;;;;;3.92;2.22;;;;;;;18.64;58.27;101063.75;6021945;28;20053;-66
2022/06/29 05:12:12;;;;;;;3.50;2.20;;;;;;;18.66;58.56;101059.03;6024644;28;20397;-66
2022/06/29 05:15:08;;;;;;;4.50;2.60;;;;;;;19.30;56.97;101059.84;6017056;28;20277;-66
2022/06/29 05:18:04;;;;;;;4.35;2.53;;;;;;;19.56;56.22;101053.88;6024664;28;20285;-66
2022/06/29 05:20:59;;;;;;;3.97;2.30;;;;;;;19.77;55.31;101061.06;6023568;28;20049;-66
2022/06/29 05:23:54;;;;;;;5.10;2.60;;;;;;;18.85;57.53;101039.59;6022268;28;20038;-65
2022/06/29 05:26:50;;;;;;;5.47;2.40;;;;;;;18.88;58.30;101059.88;6027720;28;20034;-66
2022/06/29 05:29:45;;;;;;;4.17;2.60;;;;;;;18.74;58.91;101061.59;6020671;28;20290;-66
2022/06/29 05:32:41;;;;;;;6.60;2.70;;;;;;;19.49;56.91;101061.06;6023828;28;20056;-66
2022/06/29 05:35:36;;;;;;;3.65;2.58;;;;;;;19.24;58.03;101057.91;6015676;28;20041;-66
2022/06/29 05:38:32;;;;;;;9.57;2.67;;;;;;;19.39;58.46;101060.56;6011413;28;20141;-66
2022/06/29 05:41:27;;;;;;;11.05;2.90;;;;;;;20.18;56.29;101043.06;6025326;28;20446;-66
2022/06/29 05:44:22;;;;;;;5.40;2.90;;;;;;;19.87;57.44;101048.91;6020139;28;20036;-66
2022/06/29 05:47:18;;;;;;;5.80;2.90;;;;;;;20.24;56.58;101044.13;6029989;28;20467;-66
2022/06/29 05:50:13;;;;;;;6.47;2.90;;;;;;;20.99;54.90;101044.78;6023382;28;20178;-66
2022/06/29 05:53:08;;;;;;;4.77;2.70;;;;;;;21.04;54.40;101031.50;6014106;28;20277;-66
2022/06/29 05:56:04;;;;;;;5.87;3.07;;;;;;;21.63;53.17;101028.81;6025250;28;20038;-66
2022/06/29 05:58:59;;;;;;;5.80;2.70;;;;;;;21.35;53.87;101031.75;6027752;28;20031;-66
2022/06/29 06:01:54;;;;;;;4.03;2.90;;;;;;;20.69;56.39;101028.13;6027514;28;20432;-66
2022/06/29 06:04:50;;;;;;;5.50;2.80;;;;;;;21.35;55.35;101029.06;6021300;28;20034;-65
2022/06/29 06:07:45;;;;;;;5.10;2.80;;;;;;;21.46;55.89;101021.34;6027331;28;20137;-66
2022/06/29 06:10:41;;;;;;;5.43;3.17;;;;;;;21.89;53.85;101020.69;6022621;28;20384;-66
2022/06/29 06:13:37;;;;;;;5.30;3.10;;;;;;;21.19;55.64;101018.69;6027481;28;20027;-66
2022/06/29 06:16:32;;;;;;;5.13;3.00;;;;;;;21.72;55.43;101029.41;6024110;28;20508;-66
2022/06/29 06:19:27;;;;;;;4.97;2.70;;;;;;;21.86;54.08;101020.25;6022568;28;20046;-66
2022/06/29 06:22:23;;;;;;;7.47;2.90;;;;;;;21.94;54.59;101011.94;6022551;28;20034;-65
2022/06/29 06:25:18;;;;;;;7.32;3.13;;;;;;;21.74;55.21;101016.56;6030445;28;20030;-65
2022/06/29 06:28:14;;;;;;;5.65;2.97;;;;;;;22.20;54.98;101009.16;6027997;28;20046;-66
2022/06/29 06:31:09;;;;;;;3.80;2.57;;;;;;;22.39;55.32;101020.91;6022185;28;20046;-66
2022/06/29 06:34:04;;;;;;;5.27;2.27;;;;;;;23.20;51.79;101013.72;6026842;28;20037;-66
2022/06/29 06:37:01;;;;;;;3.63;2.50;;;;;;;22.54;53.78;101008.75;6034979;28;20405;-66
2022/06/29 06:43:11;;;;;;;5.43;3.10;;;;;;;23.18;52.43;101018.53;6017575;28;20034;-66
2022/06/29 06:46:06;;;;;;;5.77;2.93;;;;;;;23.06;52.53;101018.44;6020994;28;20042;-66
2022/06/29 06:49:01;;;;;;;3.73;2.40;;;;;;;23.38;52.60;101037.34;6017240;28;20371;-66
2022/06/29 06:51:56;;;;;;;8.10;2.53;;;;;;;23.13;52.55;101021.06;6021096;28;20038;-66
2022/06/29 06:54:52;;;;;;;5.93;2.73;;;;;;;23.25;52.56;101010.34;6027371;28;20685;-66
2022/06/29 06:57:47;;;;;;;5.27;2.37;;;;;;;22.89;53.95;101021.88;6026752;28;20037;-65
2022/06/29 07:00:43;;;;;;;12.37;2.73;;;;;;;23.53;52.18;101017.00;6013823;28;20026;-66
2022/06/29 07:03:38;;;;;;;3.53;2.63;;;;;;;23.33;52.78;101010.06;6022599;28;20034;-66
2022/06/29 07:06:34;;;;;;;4.50;2.23;;;;;;;23.53;52.53;101008.88;6010847;28;20474;-66
2022/06/29 07:09:29;;;;;;;4.07;2.60;;;;;;;23.64;52.18;101026.28;6018796;28;20775;-65
2022/06/29 07:12:24;;;;;;;5.17;2.20;;;;;;;23.84;51.34;101009.78;6015639;28;20057;-66
2022/06/29 07:15:20;;;;;;;3.78;2.30;;;;;;;23.67;51.62;101010.38;6026315;28;20034;-67
2022/06/29 07:18:15;;;;;;;3.05;2.20;;;;;;;23.53;51.94;101017.00;6017376;28;20037;-65
2022/06/29 07:21:10;;;;;;;4.47;2.27;;;;;;;23.67;51.75;101015.00;6020896;28;20031;-65
2022/06/29 07:24:06;;;;;;;6.63;2.43;;;;;;;23.87;51.42;101014.75;6023884;28;20042;-65
2022/06/29 07:27:02;;;;;;;3.65;2.58;;;;;;;23.53;52.14;101018.88;6017541;28;20034;-66
2022/06/29 07:29:57;;;;;;;5.43;2.53;;;;;;;23.40;53.03;101019.81;6016444;28;20084;-66
2022/06/29 07:32:52;;;;;;;3.20;2.47;;;;;;;23.49;53.39;101012.25;6006857;28;20422;-65
2022/06/29 07:35:48;;;;;;;5.20;2.70;;;;;;;24.36;50.82;101025.44;6015149;28;20030;-65
2022/06/29 07:38:43;;;;;;;4.47;3.27;;;;;;;24.08;51.92;101022.47;6018951;28;20773;-65
2022/06/29 07:41:38;;;;;;;4.60;2.63;;;;;;;24.53;50.57;101015.63;6013507;28;20037;-66
2022/06/29 07:44:33;;;;;;;4.40;3.00;;;;;;;24.25;51.79;101012.66;6011790;28;20043;-66
2022/06/29 07:47:29;;;;;;;4.77;3.67;;;;;;;23.32;54.46;101028.19;6012903;28;20026;-66
2022/06/29 07:50:24;;;;;;;6.77;3.50;;;;;;;23.30;54.73;101030.28;6019629;28;20585;-66
2022/06/29 07:53:20;;;;;;;6.07;3.50;;;;;;;23.11;55.62;101015.88;6013962;28;20026;-65
2022/06/29 07:56:15;;;;;;;5.72;3.83;;;;;;;22.95;56.48;101026.41;6022574;28;20289;-66
2022/06/29 07:59:10;;;;;;;6.20;3.73;;;;;;;22.84;57.42;100998.19;6012888;28;20061;-66
2022/06/29 08:02:06;;;;;;;8.50;3.67;;;;;;;23.12;56.70;101014.00;6016310;28;20328;-65
2022/06/29 08:05:01;;;;;;;5.32;4.03;;;;;;;23.06;56.83;101017.59;6032775;28;20426;-66
2022/06/29 08:07:57;;;;;;;7.65;4.38;;;;;;;23.15;56.89;101010.03;6014930;28;20568;-66
2022/06/29 08:10:52;;;;;;;8.73;3.90;;;;;;;23.38;56.80;101011.09;6017301;28;20101;-66
2022/06/29 08:13:48;;;;;;;10.57;4.38;;;;;;;23.36;56.06;101013.16;6024632;28;20281;-66
2022/06/29 08:16:43;;;;;;;10.23;4.57;;;;;;;22.89;57.49;101022.69;6018948;28;20046;-66
2022/06/29 08:19:38;;;;;;;6.60;4.43;;;;;;;23.19;57.11;101022.88;6014943;28;20058;-66
2022/06/29 08:22:34;;;;;;;5.47;4.20;;;;;;;23.30;56.85;101019.47;6019258;28;20034;-66
2022/06/29 08:25:31;;;;;;;6.50;4.20;;;;;;;22.94;57.36;101005.81;6015503;28;20029;-66
2022/06/29 08:28:27;;;;;;;5.00;3.92;;;;;;;22.74;58.34;101015.94;6014166;28;20298;-66
2022/06/29 08:31:22;;;;;;;4.45;3.70;;;;;;;23.17;57.40;101018.75;6014343;28;20030;-66
2022/06/29 08:34:23;;;;;;;6.40;4.10;;;;;;;23.06;57.56;101017.59;6011594;28;20037;-66
2022/06/29 08:37:18;;;;;;;5.32;3.50;;;;;;;23.43;55.45;101013.97;6010871;28;20294;-66
2022/06/29 08:40:16;;;;;;;4.60;3.70;;;;;;;23.22;55.97;101000.81;6019985;28;20053;-66
2022/06/29 08:43:13;;;;;;;5.57;3.55;;;;;;;23.23;56.13;100998.94;6022741;28;20308;-66
2022/06/29 08:46:11;;;;;;;6.32;3.40;;;;;;;23.67;54.95;101006.88;6017193;28;20069;-66
2022/06/29 08:49:06;;;;;;;6.90;3.08;;;;;;;24.03;53.93;101008.72;6015844;28;20042;-66
2022/06/29 08:52:04;;;;;;;6.13;3.30;;;;;;;23.58;54.57;101000.91;6008599;28;20046;-66
2022/06/29 08:55:00;;;;;;;5.45;3.20;;;;;;;23.30;55.20;101000.53;6012511;28;20354;-66
2022/06/29 08:57:56;;;;;;;5.78;2.95;;;;;;;23.55;54.32;101004.06;6021152;28;20461;-66
2022/06/29 09:00:51;;;;;;;5.90;3.42;;;;;;;23.61;54.07;100988.81;6009830;28;20042;-66
2022/06/29 09:03:47;;;;;;;4.30;3.10;;;;;;;23.50;53.51;100992.25;6023227;28;20035;-66
2022/06/29 09:06:42;;;;;;;5.20;2.90;;;;;;;23.62;53.34;100990.44;6007702;28;20117;-67
2022/06/29 09:10:19;;;;;;;4.10;2.85;;;;;;;24.14;52.18;100994.44;6011598;28;20208;-66
2022/06/29 09:13:22;;;;;;;4.38;2.83;;;;;;;24.30;50.40;100980.28;5994988;28;20549;-66
2022/06/29 09:16:18;;;;;;;4.38;2.95;;;;;;;24.70;48.98;100989.50;5994170;28;20038;-66
2022/06/29 09:19:13;;;;;;;3.10;2.63;;;;;;;24.61;49.26;100982.75;6014404;28;20042;-66
2022/06/29 09:22:09;;;;;;;6.50;3.10;;;;;;;24.72;49.25;100984.69;6024223;28;20058;-66
2022/06/29 09:25:04;;;;;;;4.72;2.80;;;;;;;24.73;50.26;100980.88;6025412;28;20712;-66
2022/06/29 09:28:00;;;;;;;6.00;3.05;;;;;;;24.69;50.81;100987.84;6025326;28;20096;-67
2022/06/29 09:30:56;;;;;;;6.47;4.00;;;;;;;24.65;51.45;100980.41;6024706;28;20127;-66
2022/06/29 09:33:51;;;;;;;4.32;3.33;;;;;;;24.61;50.86;100971.91;6024685;28;20046;-66
2022/06/29 09:36:54;;;;;;;5.30;3.25;;;;;;;24.25;51.96;100980.13;6032121;28;20026;-66
2022/06/29 09:39:53;;;;;;;4.97;3.10;;;;;;;24.53;50.93;100982.25;6024943;28;20474;-66
2022/06/29 09:42:49;;;;;;;5.68;2.78;;;;;;;24.71;50.76;100974.88;6024681;28;20034;-66
2022/06/29 09:45:46;;;;;;;4.90;2.80;;;;;;;24.58;50.75;100980.50;6024931;28;20108;-65
2022/06/29 09:48:42;;;;;;;4.10;3.10;;;;;;;24.11;50.96;100981.34;6024583;28;20525;-66
2022/06/29 09:51:38;;;;;;;5.07;2.90;;;;;;;23.97;52.14;100987.97;6023570;28;20390;-66
2022/06/29 09:54:47;;;;;;;4.43;3.20;;;;;;;23.77;53.14;100981.97;6023473;28;20033;-66
2022/06/29 09:57:43;;;;;;;3.60;2.92;;;;;;;23.83;53.63;100986.47;6024400;28;20065;-66
2022/06/29 10:03:54;;;;;;;3.53;2.60;;;;;;;23.89;51.78;100985.59;6027283;28;20030;-66
2022/06/29 10:06:49;;;;;;;3.42;2.70;;;;;;;23.70;52.81;100990.97;6028952;28;20038;-66
2022/06/29 10:09:44;;;;;;;4.50;2.73;;;;;;;23.71;51.94;100983.69;6044230;28;20516;-66
2022/06/29 10:16:28;;;;;;;5.18;2.85;;;;;;;23.62;51.81;100971.47;6028825;28;20038;-66
2022/06/29 10:19:45;;;;;;;4.60;2.75;;;;;;;23.33;53.01;100985.72;6025381;28;20038;-66
2022/06/29 10:22:41;;;;;;;5.38;2.67;;;;;;;23.50;52.82;100979.53;6017168;28;20093;-66
2022/06/29 10:25:37;;;;;;;4.80;2.97;;;;;;;23.66;53.24;100970.81;6020087;28;20145;-66
2022/06/29 10:28:32;;;;;;;4.85;2.90;;;;;;;23.86;52.49;100981.41;6027071;28;20435;-66
2022/06/29 10:31:59;;;;;;;4.57;3.03;;;;;;;23.97;51.06;100972.53;6024140;28;20531;-67
2022/06/29 10:35:07;;;;;;;3.70;2.90;;;;;;;24.11;51.08;100967.81;6018799;28;20304;-66
2022/06/29 10:38:02;;;;;;;8.82;3.08;;;;;;;24.02;51.50;100969.16;6016655;28;20505;-66
2022/06/29 10:41:09;;;;;;;4.77;3.13;;;;;;;24.04;51.18;100978.72;6027636;28;20034;-66
2022/06/29 10:44:05;;;;;;;6.93;2.90;;;;;;;23.94;51.69;100969.47;6026941;28;20390;-66
2022/06/29 10:47:01;;;;;;;5.75;3.15;;;;;;;23.82;52.83;100968.56;6026553;28;20045;-65
2022/06/29 10:50:15;;;;;;;6.85;3.15;;;;;;;24.02;53.02;100966.44;6021967;28;20446;-66
2022/06/29 10:53:12;;;;;;;5.93;3.47;;;;;;;23.95;53.06;100946.72;6019659;28;20047;-65
2022/06/29 10:56:08;;;;;;;4.72;3.50;;;;;;;24.45;51.77;100941.91;6026518;28;20038;-66
2022/06/29 10:59:33;;;;;;;4.30;3.30;;;;;;;24.58;52.23;100963.41;6017176;28;20041;-66
2022/06/29 11:02:28;;;;;;;6.18;3.92;;;;;;;24.47;52.29;100940.59;6017283;28;20114;-66
2022/06/29 11:05:23;;;;;;;4.63;3.37;;;;;;;24.40;52.97;100937.19;6025386;28;20398;-66
2022/06/29 11:18:06;;;;;;;4.05;3.20;;;;;;;24.23;51.02;100934.28;6025110;28;20034;-65
2022/06/29 11:21:03;;;;;;;3.92;2.75;;;;;;;24.37;50.86;100943.06;6022125;28;20430;-65
2022/06/29 11:24:04;;;;;;;3.30;2.63;;;;;;;24.69;50.25;100933.59;6029427;28;20038;-66
2022/06/29 11:26:59;;;;;;;4.22;3.05;;;;;;;24.62;49.90;100921.19;6029762;28;20116;-66
2022/06/29 11:29:55;;;;;;;3.87;2.70;;;;;;;24.18;50.35;100926.03;6021500;28;20046;-66
2022/06/29 11:32:50;;;;;;;4.27;2.57;;;;;;;24.55;49.30;100921.28;6019222;28;20035;-66
2022/06/29 11:35:46;;;;;;;4.80;2.45;;;;;;;24.54;49.97;100922.34;6024842;28;20389;-66
2022/06/29 11:38:43;;;;;;;3.58;2.38;;;;;;;24.63;48.99;100920.13;6022057;28;20473;-66
2022/06/29 11:45:06;;;;;;;3.50;2.60;;;;;;;24.59;47.77;100927.91;6016927;28;20034;-66
2022/06/29 11:48:10;;;;;;;4.63;2.38;;;;;;;24.45;48.70;100921.03;6024295;28;20057;-66
2022/06/29 11:51:10;;;;;;;7.00;2.50;;;;;;;24.46;49.55;100917.25;6018741;28;20470;-66
2022/06/29 11:54:06;;;;;;;6.43;2.67;;;;;;;24.09;49.71;100911.13;6020168;28;20049;-66
2022/06/29 11:57:15;;;;;;;5.90;2.30;;;;;;;24.27;49.79;100915.66;6020898;28;20024;-66
2022/06/29 12:00:11;;;;;;;6.70;2.25;;;;;;;24.73;49.25;100913.06;6018235;28;20038;-67
2022/06/29 12:03:08;;;;;;;3.55;2.35;;;;;;;24.31;49.58;100919.56;6023930;28;20041;-66
2022/06/29 12:06:04;;;;;;;2.95;2.15;;;;;;;24.60;49.32;100901.59;6020889;28;20421;-67
2022/06/29 12:08:59;;;;;;;3.67;2.35;;;;;;;24.54;48.97;100900.63;6015875;28;20066;-66
2022/06/29 12:11:55;;;;;;;3.65;2.25;;;;;;;24.17;49.69;100899.97;6019762;28;20033;-67
2022/06/29 12:14:51;;;;;;;4.63;2.42;;;;;;;23.87;50.44;100907.22;6021317;28;20121;-66
2022/06/29 12:17:46;;;;;;;3.70;2.55;;;;;;;24.17;49.92;100902.66;6023787;28;20038;-66
2022/06/29 12:20:44;;;;;;;5.47;2.40;;;;;;;24.63;49.05;100901.13;6023124;28;20042;-66
2022/06/29 12:23:40;;;;;;;3.90;2.35;;;;;;;24.18;49.78;100898.09;6022898;28;20034;-66
2022/06/29 12:26:35;;;;;;;5.13;2.38;;;;;;;24.09;49.99;100910.28;6014527;28;20037;-66
2022/06/29 12:29:31;;;;;;;3.37;2.60;;;;;;;24.06;49.84;100899.88;6016931;28;20030;-66
2022/06/29 12:32:26;;;;;;;3.03;2.30;;;;;;;24.12;49.92;100904.41;6016321;28;20795;-66
2022/06/29 12:35:21;;;;;;;3.90;2.50;;;;;;;24.39;49.09;100897.56;6025564;28;20041;-66
2022/06/29 12:38:16;;;;;;;5.60;2.80;;;;;;;24.24;49.09;100908.81;6010622;28;20294;-66
2022/06/29 12:41:12;;;;;;;3.57;2.43;;;;;;;24.33;48.47;100901.19;6022380;28;20498;-66
2022/06/29 12:44:08;;;;;;;4.67;2.60;;;;;;;24.47;48.42;100886.38;6018332;28;20121;-66
2022/06/29 12:47:03;;;;;;;3.30;2.20;;;;;;;24.15;48.82;100899.38;6016868;28;20038;-66
2022/06/29 12:50:01;;;;;;;3.78;2.35;;;;;;;24.22;49.29;100900.09;6022017;28;20105;-66
2022/06/29 12:52:56;;;;;;;6.72;2.90;;;;;;;24.31;48.65;100886.22;6015402;28;20038;-67
2022/06/29 12:55:51;;;;;;;3.80;2.70;;;;;;;24.12;48.48;100885.44;6020274;28;20049;-66
2022/06/29 12:58:47;;;;;;;3.60;2.40;;;;;;;24.54;48.23;100887.06;6009927;28;20287;-67
2022/06/29 13:01:42;;;;;;;6.17;2.03;;;;;;;24.93;46.51;100868.50;6008246;28;20047;-66
2022/06/29 13:04:38;;;;;;;3.83;2.72;;;;;;;25.00;45.95;100869.25;6022579;28;20285;-66
2022/06/29 13:07:34;;;;;;;5.03;2.45;;;;;;;24.66;46.26;100882.50;6020604;28;20034;-66
2022/06/29 13:10:31;;;;;;;4.25;2.40;;;;;;;24.56;46.42;100879.56;6014247;28;20035;-66
2022/06/29 13:13:27;;;;;;;3.08;2.05;;;;;;;24.42;46.55;100867.25;6023636;28;20441;-66
2022/06/29 13:16:22;;;;;;;3.58;2.08;;;;;;;24.28;46.56;100861.22;6021116;28;20684;-66
2022/06/29 13:19:17;;;;;;;4.23;2.07;;;;;;;24.30;45.63;100862.88;6012841;28;20034;-66
2022/06/29 13:22:13;;;;;;;3.03;2.30;;;;;;;24.61;45.00;100857.97;6014799;28;20043;-66
2022/06/29 13:25:08;;;;;;;4.53;2.40;;;;;;;24.83;43.51;100856.38;6015507;28;20134;-67
2022/06/29 13:28:04;;;;;;;3.33;1.60;;;;;;;24.64;41.07;100853.97;6022040;28;20462;-66
2022/06/29 13:31:00;;;;;;;2.90;1.60;;;;;;;24.95;40.61;100864.50;6021510;28;20474;-66
2022/06/29 13:33:55;;;;;;;2.30;1.75;;;;;;;24.82;39.87;100843.88;6021065;28;20073;-66
2022/06/29 13:36:51;;;;;;;2.80;1.77;;;;;;;25.14;39.48;100851.66;6016251;28;20050;-67
2022/06/29 13:39:46;;;;;;;4.80;1.60;;;;;;;24.96;39.40;100852.59;6023239;28;20042;-66
2022/06/29 13:42:41;;;;;;;4.63;2.10;;;;;;;25.27;39.09;100843.25;6018343;28;20038;-66
2022/06/29 13:45:37;;;;;;;3.17;1.57;;;;;;;25.01;39.95;100849.16;6022057;28;20117;-66
2022/06/29 13:48:32;;;;;;;2.63;1.70;;;;;;;25.02;39.69;100845.38;6026186;28;20038;-66
2022/06/29 13:51:27;;;;;;;4.20;2.10;;;;;;;25.17;40.79;100853.84;6028423;28;20042;-66
2022/06/29 13:54:23;;;;;;;3.53;2.03;;;;;;;25.15;40.69;100850.56;6019414;28;20282;-66
2022/06/29 13:57:18;;;;;;;2.73;1.90;;;;;;;25.28;40.85;100840.28;6028789;28;20368;-68
2022/06/29 14:00:14;;;;;;;3.90;1.90;;;;;;;25.33;42.16;100836.81;6028108;28;21068;-66
2022/06/29 14:03:09;;;;;;;5.05;2.83;;;;;;;25.15;45.43;100843.25;6029695;28;20030;-66
2022/06/29 14:06:05;;;;;;;4.50;3.00;;;;;;;24.72;46.86;100840.88;6028693;28;20040;-66
2022/06/29 14:09:00;;;;;;;3.45;2.65;;;;;;;24.69;47.69;100838.66;6021471;28;20113;-66
2022/06/29 14:11:55;;;;;;;3.30;2.77;;;;;;;24.53;48.61;100842.06;6028804;28;20077;-66